Time;durP1;ratioP1;P1;durP2;ratioP2;P2;SDS_P1;SDS_P2;PMS_P1;PMS_P2;Temp;Humidity;BMP_temperature;BMP_pressure;BME280_temperature;BME280_humidity;BME280_pressure;Samples;Min_cycle;Max_cycle;Signal;HPM_P1;HPM_P2
2022/03/25 00:02:04;;;;;;;4.75;3.65;;;;;;;;;;5026193;28;20037;-51
2022/03/25 00:04:30;;;;;;;5.95;3.97;;;;;;;;;;5026589;28;20036;-48
2022/03/25 00:06:56;;;;;;;5.45;3.53;;;;;;;;;;5027269;28;20068;-52
2022/03/25 00:09:22;;;;;;;8.52;4.57;;;;;;;;;;5026795;28;20433;-49
2022/03/25 00:11:49;;;;;;;7.30;3.85;;;;;;;;;;5026360;28;20036;-51
2022/03/25 00:14:16;;;;;;;8.85;4.45;;;;;;;;;;5026846;28;20025;-51
2022/03/25 00:16:42;;;;;;;5.22;3.47;;;;;;;;;;5024511;28;20564;-50
2022/03/25 00:19:08;;;;;;;6.70;3.83;;;;;;;;;;5026371;28;20049;-48
2022/03/25 00:21:36;;;;;;;5.03;3.55;;;;;;;;;;5026677;28;20424;-50
2022/03/25 00:24:03;;;;;;;5.15;3.67;;;;;;;;;;5031191;28;20055;-50
2022/03/25 00:26:30;;;;;;;5.57;3.80;;;;;;;;;;5037180;28;20026;-50
2022/03/25 00:28:56;;;;;;;6.93;3.70;;;;;;;;;;5026672;28;20512;-47
2022/03/25 00:31:23;;;;;;;6.35;4.35;;;;;;;;;;5026049;28;20051;-50
2022/03/25 00:33:50;;;;;;;5.47;3.72;;;;;;;;;;5025975;28;20040;-50
2022/03/25 00:36:21;;;;;;;6.57;4.03;;;;;;;;;;5026105;28;20033;-49
2022/03/25 00:38:47;;;;;;;6.80;3.85;;;;;;;;;;5042890;28;20025;-50
2022/03/25 00:41:16;;;;;;;4.93;3.45;;;;;;;;;;5045968;28;20075;-50
2022/03/25 00:43:43;;;;;;;5.50;3.42;;;;;;;;;;5045594;28;20032;-48
2022/03/25 00:46:10;;;;;;;4.57;3.40;;;;;;;;;;5045636;28;20082;-48
2022/03/25 00:48:36;;;;;;;4.88;3.38;;;;;;;;;;5045744;28;20021;-47
2022/03/25 00:51:03;;;;;;;4.50;3.47;;;;;;;;;;5037315;28;20072;-49
2022/03/25 00:53:29;;;;;;;4.53;3.33;;;;;;;;;;5026572;28;20044;-47
2022/03/25 00:55:56;;;;;;;4.47;3.08;;;;;;;;;;5039931;28;20091;-47
2022/03/25 00:58:23;;;;;;;3.55;2.65;;;;;;;;;;5045543;28;20500;-47
2022/03/25 01:00:49;;;;;;;6.20;3.67;;;;;;;;;;5045081;28;20029;-49
2022/03/25 01:03:15;;;;;;;5.95;4.20;;;;;;;;;;5063786;28;20067;-48
2022/03/25 01:05:42;;;;;;;7.15;4.65;;;;;;;;;;5065158;28;20094;-47
2022/03/25 01:08:09;;;;;;;6.72;4.68;;;;;;;;;;5065258;28;20557;-51
2022/03/25 01:10:36;;;;;;;8.23;4.43;;;;;;;;;;5058028;28;20307;-49
2022/03/25 01:13:03;;;;;;;8.18;4.97;;;;;;;;;;5045160;28;20025;-48
2022/03/25 01:15:29;;;;;;;7.70;4.80;;;;;;;;;;5045639;28;20386;-48
2022/03/25 01:17:55;;;;;;;10.55;5.85;;;;;;;;;;5045448;28;20488;-51
2022/03/25 01:20:21;;;;;;;7.00;5.22;;;;;;;;;;5045422;28;20104;-50
2022/03/25 01:22:48;;;;;;;8.23;4.90;;;;;;;;;;5033825;28;20586;-52
2022/03/25 01:25:14;;;;;;;8.43;4.93;;;;;;;;;;5024988;28;20079;-48
2022/03/25 01:27:40;;;;;;;7.47;4.72;;;;;;;;;;5024665;28;20033;-48
2022/03/25 01:30:07;;;;;;;7.63;4.90;;;;;;;;;;5024990;28;20037;-49
2022/03/25 01:32:34;;;;;;;6.97;4.80;;;;;;;;;;5024803;28;20037;-46
2022/03/25 01:35:01;;;;;;;7.68;4.75;;;;;;;;;;5024628;28;20030;-49
2022/03/25 01:37:29;;;;;;;6.82;4.82;;;;;;;;;;5033638;28;20397;-49
2022/03/25 01:39:55;;;;;;;7.50;4.40;;;;;;;;;;5045285;28;20033;-48
2022/03/25 01:42:34;;;;;;;7.18;4.65;;;;;;;;;;5044772;28;20024;-52
2022/03/25 01:45:01;;;;;;;7.55;4.88;;;;;;;;;;5044847;28;20482;-52
2022/03/25 01:47:31;;;;;;;6.35;4.50;;;;;;;;;;5045295;28;20094;-50
2022/03/25 01:49:57;;;;;;;6.75;4.70;;;;;;;;;;5045363;28;20036;-50
2022/03/25 01:52:25;;;;;;;7.25;4.53;;;;;;;;;;5032938;28;20594;-50
2022/03/25 01:54:51;;;;;;;7.25;4.55;;;;;;;;;;5027832;28;20462;-51
2022/03/25 01:57:18;;;;;;;7.25;4.85;;;;;;;;;;5043395;28;20577;-50
2022/03/25 01:59:44;;;;;;;7.85;4.97;;;;;;;;;;5044391;28;20017;-51
2022/03/25 02:02:12;;;;;;;8.82;5.00;;;;;;;;;;5044820;28;20028;-48
2022/03/25 02:04:39;;;;;;;7.10;4.65;;;;;;;;;;5044296;28;20021;-51
2022/03/25 02:07:05;;;;;;;7.97;4.93;;;;;;;;;;5044902;28;20348;-48
2022/03/25 02:09:31;;;;;;;8.35;5.18;;;;;;;;;;5040436;28;20061;-48
2022/03/25 02:11:57;;;;;;;9.93;5.15;;;;;;;;;;5025052;28;20149;-49
2022/03/25 02:14:25;;;;;;;8.48;5.00;;;;;;;;;;5024708;28;20026;-49
2022/03/25 02:16:51;;;;;;;8.60;4.82;;;;;;;;;;5024100;28;20056;-48
2022/03/25 02:19:18;;;;;;;8.80;5.28;;;;;;;;;;5024752;28;20520;-47
2022/03/25 02:21:45;;;;;;;10.45;5.75;;;;;;;;;;5024933;28;20420;-51
2022/03/25 02:24:15;;;;;;;9.45;5.68;;;;;;;;;;5031153;28;20040;-49
2022/03/25 02:26:42;;;;;;;6.90;5.05;;;;;;;;;;5047998;28;20036;-50
2022/03/25 02:29:09;;;;;;;7.80;5.65;;;;;;;;;;5028709;28;20026;-51
2022/03/25 02:31:36;;;;;;;9.80;6.10;;;;;;;;;;5028380;28;20112;-47
2022/03/25 02:34:04;;;;;;;9.48;6.25;;;;;;;;;;5041106;28;20037;-48
2022/03/25 02:36:30;;;;;;;10.55;6.60;;;;;;;;;;5048020;28;20021;-50
2022/03/25 02:38:56;;;;;;;11.20;6.63;;;;;;;;;;5048680;28;20021;-51
2022/03/25 02:41:22;;;;;;;13.73;6.47;;;;;;;;;;5048296;28;20087;-49
2022/03/25 02:43:49;;;;;;;9.30;5.90;;;;;;;;;;5048273;28;20025;-48
2022/03/25 02:46:15;;;;;;;9.32;6.47;;;;;;;;;;5047829;28;20416;-48
2022/03/25 02:48:41;;;;;;;10.05;6.28;;;;;;;;;;5033757;28;20029;-48
2022/03/25 02:51:07;;;;;;;11.10;6.78;;;;;;;;;;5027822;28;20033;-49
2022/03/25 02:53:33;;;;;;;10.48;6.28;;;;;;;;;;5028312;28;20571;-48
2022/03/25 02:55:59;;;;;;;10.75;6.28;;;;;;;;;;5027782;28;20053;-51
2022/03/25 02:58:26;;;;;;;10.02;6.28;;;;;;;;;;5028661;28;20033;-49
2022/03/25 03:00:52;;;;;;;9.35;5.47;;;;;;;;;;5027690;28;20401;-48
2022/03/25 03:03:19;;;;;;;8.52;5.18;;;;;;;;;;5039002;28;20109;-49
2022/03/25 03:05:45;;;;;;;9.52;6.28;;;;;;;;;;5047396;28;20071;-50
2022/03/25 03:08:11;;;;;;;7.55;4.82;;;;;;;;;;5048113;28;20040;-50
2022/03/25 03:10:37;;;;;;;8.02;4.85;;;;;;;;;;5047491;28;20037;-52
2022/03/25 03:13:04;;;;;;;8.73;5.28;;;;;;;;;;5047725;28;20512;-48
2022/03/25 03:15:31;;;;;;;8.77;5.60;;;;;;;;;;5046612;28;20028;-47
2022/03/25 03:17:58;;;;;;;8.35;5.30;;;;;;;;;;5047827;28;20481;-48
2022/03/25 03:20:24;;;;;;;8.82;5.80;;;;;;;;;;5047579;28;20029;-49
2022/03/25 03:22:51;;;;;;;9.27;6.03;;;;;;;;;;5047242;28;20024;-48
2022/03/25 03:25:18;;;;;;;12.13;7.30;;;;;;;;;;5045477;28;20121;-50
2022/03/25 03:27:44;;;;;;;9.18;6.38;;;;;;;;;;5043675;28;20025;-49
2022/03/25 03:30:11;;;;;;;14.63;7.30;;;;;;;;;;5047764;28;20033;-47
2022/03/25 03:32:38;;;;;;;11.85;6.78;;;;;;;;;;5029501;28;20120;-47
2022/03/25 03:35:05;;;;;;;12.40;7.25;;;;;;;;;;5046174;28;20033;-49
2022/03/25 03:37:31;;;;;;;11.68;7.65;;;;;;;;;;5047387;28;20116;-47
2022/03/25 03:39:58;;;;;;;9.57;6.35;;;;;;;;;;5047101;28;20199;-48
2022/03/25 03:42:24;;;;;;;10.05;6.47;;;;;;;;;;5047719;28;20492;-48
2022/03/25 03:44:51;;;;;;;10.30;6.20;;;;;;;;;;5046148;28;20056;-47
2022/03/25 03:47:18;;;;;;;10.32;5.93;;;;;;;;;;5046888;28;20035;-47
2022/03/25 03:49:45;;;;;;;8.10;5.18;;;;;;;;;;5045361;28;20618;-47
2022/03/25 03:52:11;;;;;;;8.75;5.78;;;;;;;;;;5046783;28;20033;-48
2022/03/25 03:54:38;;;;;;;8.63;5.47;;;;;;;;;;5046383;28;20053;-48
2022/03/25 03:57:08;;;;;;;8.60;6.03;;;;;;;;;;5046952;28;20396;-47
2022/03/25 03:59:34;;;;;;;8.38;5.93;;;;;;;;;;5032256;28;20116;-47
2022/03/25 04:02:00;;;;;;;8.73;5.60;;;;;;;;;;5026313;28;20026;-47
2022/03/25 04:04:26;;;;;;;8.73;5.35;;;;;;;;;;5026888;28;20029;-47
2022/03/25 04:06:52;;;;;;;9.05;5.90;;;;;;;;;;5027490;28;20555;-48
2022/03/25 04:09:19;;;;;;;8.63;5.65;;;;;;;;;;5026612;28;20037;-48
2022/03/25 04:11:45;;;;;;;7.28;5.18;;;;;;;;;;5026492;28;20404;-47
2022/03/25 04:14:11;;;;;;;9.23;5.50;;;;;;;;;;5026017;28;20065;-47
2022/03/25 04:16:38;;;;;;;8.10;5.28;;;;;;;;;;5025821;28;20040;-48
2022/03/25 04:19:04;;;;;;;7.82;5.00;;;;;;;;;;5026863;28;20113;-47
2022/03/25 04:21:30;;;;;;;7.68;4.68;;;;;;;;;;5026402;28;20026;-47
2022/03/25 04:23:56;;;;;;;8.13;5.00;;;;;;;;;;5026053;28;20025;-48
2022/03/25 04:26:24;;;;;;;7.35;4.75;;;;;;;;;;5027053;28;20120;-47
2022/03/25 04:28:50;;;;;;;7.40;5.43;;;;;;;;;;5038552;28;20490;-48
2022/03/25 04:31:16;;;;;;;8.35;5.50;;;;;;;;;;5045872;28;20056;-48
2022/03/25 04:33:43;;;;;;;8.57;5.40;;;;;;;;;;5046056;28;20423;-49
2022/03/25 04:36:10;;;;;;;7.88;5.13;;;;;;;;;;5045884;28;20025;-48
2022/03/25 04:38:36;;;;;;;7.35;5.13;;;;;;;;;;5046129;28;20051;-49
2022/03/25 04:41:02;;;;;;;8.60;5.13;;;;;;;;;;5045981;28;20029;-49
2022/03/25 04:43:29;;;;;;;7.93;5.57;;;;;;;;;;5044086;28;20528;-48
2022/03/25 04:45:55;;;;;;;9.48;5.60;;;;;;;;;;5043261;28;20083;-49
2022/03/25 04:48:21;;;;;;;8.82;6.05;;;;;;;;;;5046630;28;20381;-47
2022/03/25 04:50:47;;;;;;;7.07;5.28;;;;;;;;;;5045651;28;20036;-50
2022/03/25 04:53:13;;;;;;;8.02;4.90;;;;;;;;;;5045835;28;20586;-48
2022/03/25 04:55:39;;;;;;;9.13;5.13;;;;;;;;;;5045354;28;20025;-48
2022/03/25 04:58:05;;;;;;;6.93;5.10;;;;;;;;;;5045179;28;20033;-50
2022/03/25 05:00:31;;;;;;;9.57;5.93;;;;;;;;;;5045569;28;20021;-49
2022/03/25 05:02:58;;;;;;;9.05;5.47;;;;;;;;;;5045196;28;20037;-48
2022/03/25 05:05:25;;;;;;;9.27;5.88;;;;;;;;;;5045431;28;20029;-49
2022/03/25 05:07:51;;;;;;;10.70;5.78;;;;;;;;;;5045790;28;20033;-49
2022/03/25 05:10:18;;;;;;;9.50;5.90;;;;;;;;;;5045375;28;20036;-47
2022/03/25 05:12:45;;;;;;;8.55;5.82;;;;;;;;;;5043827;28;20037;-47
2022/03/25 05:15:12;;;;;;;9.43;5.85;;;;;;;;;;5042006;28;20067;-47
2022/03/25 05:17:48;;;;;;;9.77;6.32;;;;;;;;;;5045069;28;20063;-49
2022/03/25 05:20:15;;;;;;;11.00;6.78;;;;;;;;;;5045042;28;20029;-47
2022/03/25 05:22:42;;;;;;;9.55;5.90;;;;;;;;;;5044846;28;20032;-49
2022/03/25 05:25:09;;;;;;;9.60;5.88;;;;;;;;;;5042416;28;20657;-49
2022/03/25 05:27:44;;;;;;;9.65;6.47;;;;;;;;;;5046060;28;20036;-50
2022/03/25 05:30:11;;;;;;;8.88;5.40;;;;;;;;;;5024357;28;20044;-50
2022/03/25 05:32:38;;;;;;;10.93;6.18;;;;;;;;;;5024885;28;20032;-50
2022/03/25 05:35:06;;;;;;;8.32;5.80;;;;;;;;;;5025249;28;20045;-48
2022/03/25 05:37:32;;;;;;;9.23;4.88;;;;;;;;;;5026287;28;20033;-49
2022/03/25 05:39:59;;;;;;;13.02;9.20;;;;;;;;;;5024626;28;20033;-48
2022/03/25 05:42:25;;;;;;;15.90;10.73;;;;;;;;;;5024835;28;20109;-47
2022/03/25 05:44:51;;;;;;;14.40;10.25;;;;;;;;;;5024607;28;20048;-48
2022/03/25 05:47:18;;;;;;;14.20;10.27;;;;;;;;;;5025179;28;20029;-49
2022/03/25 05:49:45;;;;;;;11.85;7.97;;;;;;;;;;5040269;28;20117;-47
2022/03/25 05:52:11;;;;;;;10.27;7.25;;;;;;;;;;5031643;28;20175;-47
2022/03/25 05:54:37;;;;;;;11.25;6.47;;;;;;;;;;5025679;28;20025;-51
2022/03/25 05:57:04;;;;;;;8.98;5.97;;;;;;;;;;5026666;28;20108;-49
2022/03/25 05:59:30;;;;;;;7.97;5.35;;;;;;;;;;5025862;28;20023;-47
2022/03/25 06:01:56;;;;;;;7.22;4.40;;;;;;;;;;5025990;28;20033;-50
2022/03/25 06:04:22;;;;;;;7.95;4.97;;;;;;;;;;5030994;28;20029;-49
2022/03/25 06:06:49;;;;;;;6.90;4.88;;;;;;;;;;5042896;28;20467;-50
2022/03/25 06:09:15;;;;;;;8.27;5.05;;;;;;;;;;5045836;28;20112;-50
2022/03/25 06:11:41;;;;;;;8.30;5.60;;;;;;;;;;5045700;28;20036;-51
2022/03/25 06:14:08;;;;;;;6.90;5.50;;;;;;;;;;5045881;28;20028;-48
2022/03/25 06:16:34;;;;;;;6.70;4.53;;;;;;;;;;5046599;28;20071;-48
2022/03/25 06:19:00;;;;;;;7.50;5.15;;;;;;;;;;5045748;28;20017;-46
2022/03/25 06:21:26;;;;;;;9.18;6.22;;;;;;;;;;5034338;28;20030;-47
2022/03/25 06:23:52;;;;;;;10.82;7.32;;;;;;;;;;5025729;28;20017;-49
2022/03/25 06:26:19;;;;;;;11.00;7.22;;;;;;;;;;5026007;28;20111;-48
2022/03/25 06:28:45;;;;;;;9.05;6.45;;;;;;;;;;5026831;28;20037;-51
2022/03/25 06:31:11;;;;;;;8.57;5.93;;;;;;;;;;5026004;28;20059;-50
2022/03/25 06:33:38;;;;;;;8.52;5.80;;;;;;;;;;5025439;28;20556;-48
2022/03/25 06:36:05;;;;;;;9.90;6.05;;;;;;;;;;5042072;28;20091;-48
2022/03/25 06:38:31;;;;;;;8.18;5.65;;;;;;;;;;5044611;28;20044;-48
2022/03/25 06:40:57;;;;;;;18.67;5.63;;;;;;;;;;5043927;28;20894;-51
2022/03/25 06:43:23;;;;;;;6.53;4.78;;;;;;;;;;5044549;28;20024;-50
2022/03/25 06:45:50;;;;;;;8.07;5.18;;;;;;;;;;5042447;28;20033;-52
2022/03/25 06:48:16;;;;;;;9.85;5.43;;;;;;;;;;5028161;28;20028;-47
2022/03/25 06:50:42;;;;;;;6.65;4.78;;;;;;;;;;5025515;28;20033;-47
2022/03/25 06:53:09;;;;;;;7.18;4.93;;;;;;;;;;5035705;28;20107;-47
2022/03/25 06:55:36;;;;;;;6.85;4.38;;;;;;;;;;5045589;28;20561;-48
2022/03/25 06:58:02;;;;;;;7.70;4.80;;;;;;;;;;5027439;28;20032;-49
2022/03/25 07:00:29;;;;;;;7.63;5.03;;;;;;;;;;5026253;28;20036;-47
2022/03/25 07:02:56;;;;;;;7.13;4.53;;;;;;;;;;5025906;28;20034;-50
2022/03/25 07:05:24;;;;;;;7.40;4.75;;;;;;;;;;5032621;28;20094;-50
2022/03/25 07:07:50;;;;;;;6.28;4.63;;;;;;;;;;5029032;28;20037;-52
2022/03/25 07:10:19;;;;;;;6.55;4.22;;;;;;;;;;5031022;28;20041;-50
2022/03/25 07:12:46;;;;;;;5.97;4.28;;;;;;;;;;5045280;28;20380;-50
2022/03/25 07:15:15;;;;;;;6.75;4.68;;;;;;;;;;5045583;28;20032;-50
2022/03/25 07:17:43;;;;;;;5.85;4.00;;;;;;;;;;5028827;28;20028;-50
2022/03/25 07:20:10;;;;;;;7.90;4.97;;;;;;;;;;5028880;28;20516;-48
2022/03/25 07:22:36;;;;;;;6.22;3.97;;;;;;;;;;5032584;28;20024;-49
2022/03/25 07:25:03;;;;;;;6.60;4.45;;;;;;;;;;5035197;28;20491;-48
2022/03/25 07:27:29;;;;;;;5.38;3.85;;;;;;;;;;5034306;28;20032;-48
2022/03/25 07:29:55;;;;;;;7.13;4.32;;;;;;;;;;5039110;28;20127;-48
2022/03/25 07:32:21;;;;;;;5.18;3.72;;;;;;;;;;5031109;28;20026;-48
2022/03/25 07:34:47;;;;;;;3.75;3.03;;;;;;;;;;5029009;28;20559;-47
2022/03/25 07:37:14;;;;;;;6.47;4.22;;;;;;;;;;5035962;28;20036;-51
2022/03/25 07:39:41;;;;;;;13.65;6.18;;;;;;;;;;5037163;28;20128;-48
2022/03/25 07:42:08;;;;;;;14.32;6.88;;;;;;;;;;5029046;28;20021;-48
2022/03/25 07:44:35;;;;;;;12.98;6.85;;;;;;;;;;5039769;28;20570;-47
2022/03/25 07:47:01;;;;;;;9.77;5.38;;;;;;;;;;5031037;28;20496;-49
2022/03/25 07:49:27;;;;;;;9.18;5.18;;;;;;;;;;5037707;28;20524;-48
2022/03/25 07:51:53;;;;;;;9.02;4.65;;;;;;;;;;5028134;28;20040;-50
2022/03/25 07:54:20;;;;;;;7.78;4.43;;;;;;;;;;5030709;28;20087;-50
2022/03/25 07:56:46;;;;;;;5.53;3.85;;;;;;;;;;5042829;28;20048;-48
2022/03/25 07:59:12;;;;;;;4.75;3.60;;;;;;;;;;5032271;28;20176;-49
2022/03/25 08:01:38;;;;;;;6.63;3.72;;;;;;;;;;5029743;28;20630;-47
2022/03/25 08:04:05;;;;;;;6.03;3.75;;;;;;;;;;5029610;28;20041;-51
2022/03/25 08:06:31;;;;;;;5.45;3.35;;;;;;;;;;5039669;28;20033;-52
2022/03/25 08:08:59;;;;;;;6.55;3.90;;;;;;;;;;5047022;28;20075;-49
2022/03/25 08:11:25;;;;;;;5.43;3.65;;;;;;;;;;5030180;28;20044;-52
2022/03/25 08:13:52;;;;;;;4.70;3.42;;;;;;;;;;5031456;28;21115;-52
2022/03/25 08:16:19;;;;;;;6.75;4.03;;;;;;;;;;5048259;28;20391;-52
2022/03/25 08:18:45;;;;;;;5.03;3.33;;;;;;;;;;5033456;28;20041;-51
2022/03/25 08:21:11;;;;;;;4.50;3.42;;;;;;;;;;5032833;28;20083;-51
2022/03/25 08:29:09;;;;;;;3.13;2.83;;;;;;;;;;5030002;28;20041;-50
2022/03/25 08:31:36;;;;;;;4.20;3.15;;;;;;;;;;5042125;28;20025;-52
2022/03/25 08:34:03;;;;;;;4.10;3.20;;;;;;;;;;5040558;28;20044;-49
2022/03/25 08:36:29;;;;;;;4.13;2.85;;;;;;;;;;5046904;28;20500;-50
2022/03/25 08:38:56;;;;;;;4.55;2.50;;;;;;;;;;5045085;28;20043;-51
2022/03/25 08:41:22;;;;;;;3.78;2.85;;;;;;;;;;5044137;28;20037;-50
2022/03/25 08:43:49;;;;;;;4.00;3.15;;;;;;;;;;5041080;28;20096;-49
2022/03/25 08:46:15;;;;;;;3.75;2.70;;;;;;;;;;5042301;28;20043;-50
2022/03/25 08:48:42;;;;;;;4.22;2.90;;;;;;;;;;5029068;28;20059;-51
2022/03/25 08:51:10;;;;;;;4.05;3.00;;;;;;;;;;5029881;28;20038;-51
2022/03/25 08:53:36;;;;;;;4.63;3.05;;;;;;;;;;5031273;28;20091;-51
2022/03/25 08:56:02;;;;;;;3.83;2.95;;;;;;;;;;5025496;28;20587;-47
2022/03/25 08:58:28;;;;;;;4.10;2.92;;;;;;;;;;5026501;28;20046;-50
2022/03/25 09:00:54;;;;;;;6.57;3.13;;;;;;;;;;5025236;28;20063;-51
2022/03/25 09:03:20;;;;;;;4.40;2.92;;;;;;;;;;5027131;28;20036;-48
2022/03/25 09:05:47;;;;;;;3.85;3.03;;;;;;;;;;5027374;28;20026;-51
2022/03/25 09:08:13;;;;;;;4.47;3.28;;;;;;;;;;5040629;28;20033;-51
2022/03/25 09:10:39;;;;;;;3.17;2.60;;;;;;;;;;5034932;28;20037;-51
2022/03/25 09:13:05;;;;;;;4.00;3.13;;;;;;;;;;5046444;28;20029;-51
2022/03/25 09:15:32;;;;;;;3.92;2.72;;;;;;;;;;5045101;28;20408;-52
2022/03/25 09:17:59;;;;;;;3.72;2.63;;;;;;;;;;5046147;28;20099;-49
2022/03/25 09:20:25;;;;;;;3.17;2.38;;;;;;;;;;5045199;28;20052;-49
2022/03/25 09:22:54;;;;;;;4.20;3.05;;;;;;;;;;5045737;28;20029;-47
2022/03/25 09:25:23;;;;;;;3.65;2.63;;;;;;;;;;5047051;28;20021;-48
2022/03/25 09:27:49;;;;;;;3.63;2.50;;;;;;;;;;5046147;28;20033;-48
2022/03/25 09:30:16;;;;;;;2.70;2.10;;;;;;;;;;5040880;28;20029;-49
2022/03/25 09:32:43;;;;;;;2.70;2.33;;;;;;;;;;5025721;28;20036;-51
2022/03/25 09:35:09;;;;;;;3.55;2.67;;;;;;;;;;5041083;28;20028;-47
2022/03/25 09:37:36;;;;;;;3.42;2.35;;;;;;;;;;5046198;28;20032;-52
2022/03/25 09:40:04;;;;;;;3.53;2.28;;;;;;;;;;5038471;28;20071;-47
2022/03/25 09:42:31;;;;;;;2.22;2.00;;;;;;;;;;5034234;28;20033;-48
2022/03/25 09:44:57;;;;;;;4.35;2.72;;;;;;;;;;5045553;28;20028;-48
2022/03/25 09:47:23;;;;;;;3.38;2.60;;;;;;;;;;5044800;28;20029;-49
2022/03/25 09:49:51;;;;;;;3.30;2.50;;;;;;;;;;5040846;28;20063;-47
2022/03/25 09:52:21;;;;;;;4.90;2.88;;;;;;;;;;5029688;28;20090;-47
2022/03/25 09:54:47;;;;;;;2.95;2.28;;;;;;;;;;5026259;28;20029;-47
2022/03/25 09:57:13;;;;;;;4.15;2.65;;;;;;;;;;5025618;28;20389;-51
2022/03/25 09:59:39;;;;;;;2.85;2.35;;;;;;;;;;5025739;28;20041;-51
2022/03/25 10:02:06;;;;;;;4.88;3.60;;;;;;;;;;5025218;28;20033;-49
2022/03/25 10:04:42;;;;;;;3.92;3.15;;;;;;;;;;5048211;28;20017;-50
2022/03/25 10:07:19;;;;;;;3.97;3.03;;;;;;;;;;5064111;28;20517;-47
2022/03/25 10:09:47;;;;;;;2.88;2.13;;;;;;;;;;5045539;28;20573;-48
2022/03/25 10:12:23;;;;;;;2.85;2.40;;;;;;;;;;5033369;28;20132;-48
2022/03/25 10:14:50;;;;;;;3.78;2.70;;;;;;;;;;5026203;28;20021;-48
2022/03/25 10:17:17;;;;;;;3.55;2.50;;;;;;;;;;5026582;28;20032;-49
2022/03/25 10:19:48;;;;;;;4.03;3.15;;;;;;;;;;5025736;28;20066;-47
2022/03/25 10:22:16;;;;;;;3.17;2.15;;;;;;;;;;5025632;28;20029;-49
2022/03/25 10:24:44;;;;;;;3.20;2.50;;;;;;;;;;5023626;28;20056;-47
2022/03/25 10:27:10;;;;;;;2.97;2.15;;;;;;;;;;5032411;28;20078;-48
2022/03/25 10:29:37;;;;;;;3.58;2.45;;;;;;;;;;5029740;28;20061;-48
2022/03/25 10:32:10;;;;;;;2.47;2.20;;;;;;;;;;5025196;28;20037;-48
2022/03/25 10:34:37;;;;;;;2.35;1.80;;;;;;;;;;5025617;28;20037;-52
2022/03/25 10:37:05;;;;;;;2.47;1.85;;;;;;;;;;5028405;28;20037;-51
2022/03/25 10:39:31;;;;;;;2.30;1.80;;;;;;;;;;5025571;28;20136;-49
2022/03/25 10:41:59;;;;;;;2.35;1.63;;;;;;;;;;5028122;28;20037;-49
2022/03/25 10:44:34;;;;;;;2.65;2.05;;;;;;;;;;5029955;28;20033;-47
2022/03/25 10:47:19;;;;;;;2.42;1.88;;;;;;;;;;5030445;28;20409;-48
2022/03/25 10:49:46;;;;;;;;;;;;;;;;;;5051058;28;20021;-47
2022/03/25 10:52:26;;;;;;;2.00;1.60;;;;;;;;;;5034147;28;19913;-50
2022/03/25 10:55:12;;;;;;;3.70;2.22;;;;;;;;;;5030075;28;20048;-48
2022/03/25 10:57:48;;;;;;;2.05;1.52;;;;;;;;;;5039401;28;20046;-51
2022/03/25 11:00:14;;;;;;;2.20;1.75;;;;;;;;;;5048610;28;20035;-47
2022/03/25 11:02:41;;;;;;;1.77;1.52;;;;;;;;;;5028053;28;20124;-50
2022/03/25 11:05:09;;;;;;;2.22;2.03;;;;;;;;;;5029356;28;20029;-48
2022/03/25 11:07:36;;;;;;;2.53;1.90;;;;;;;;;;5039672;28;20484;-48
2022/03/25 11:10:02;;;;;;;3.08;2.40;;;;;;;;;;5048820;28;20048;-51
2022/03/25 11:12:30;;;;;;;3.00;1.98;;;;;;;;;;5047688;28;20047;-48
2022/03/25 11:14:58;;;;;;;2.17;1.80;;;;;;;;;;5044974;28;20048;-51
2022/03/25 11:17:26;;;;;;;2.38;1.85;;;;;;;;;;5032576;28;20492;-52
2022/03/25 11:19:54;;;;;;;2.55;1.98;;;;;;;;;;5047827;28;20074;-52
2022/03/25 11:22:21;;;;;;;2.42;1.95;;;;;;;;;;5047693;28;20028;-51
2022/03/25 11:24:50;;;;;;;3.65;2.45;;;;;;;;;;5050425;28;20059;-50
2022/03/25 11:27:20;;;;;;;3.25;2.55;;;;;;;;;;5047110;28;20785;-48
2022/03/25 11:29:48;;;;;;;3.58;2.70;;;;;;;;;;5050036;28;20086;-52
2022/03/25 11:32:15;;;;;;;2.85;2.47;;;;;;;;;;5032941;28;20106;-48
2022/03/25 11:34:43;;;;;;;5.07;2.80;;;;;;;;;;5030337;28;20443;-49
2022/03/25 11:37:16;;;;;;;5.05;3.40;;;;;;;;;;5047484;28;20139;-49
2022/03/25 11:39:42;;;;;;;4.03;2.78;;;;;;;;;;5049235;28;20033;-49
2022/03/25 11:42:28;;;;;;;3.90;3.00;;;;;;;;;;5047208;28;20514;-49
2022/03/25 11:45:14;;;;;;;4.00;2.95;;;;;;;;;;5046075;28;20061;-48
2022/03/25 11:47:40;;;;;;;3.90;2.80;;;;;;;;;;5049010;28;20108;-48
2022/03/25 11:50:29;;;;;;;3.35;2.60;;;;;;;;;;5044241;28;20507;-50
2022/03/25 11:52:56;;;;;;;3.92;2.92;;;;;;;;;;5043791;28;20040;-48
2022/03/25 11:55:22;;;;;;;3.92;3.17;;;;;;;;;;5047887;28;20104;-48
2022/03/25 11:57:49;;;;;;;3.25;2.72;;;;;;;;;;5049630;28;20514;-48
2022/03/25 12:00:31;;;;;;;4.65;3.13;;;;;;;;;;5045850;28;20026;-48
2022/03/25 12:03:01;;;;;;;4.95;3.53;;;;;;;;;;5041693;28;20582;-49
2022/03/25 12:05:32;;;;;;;4.20;3.05;;;;;;;;;;5028983;28;20041;-51
2022/03/25 12:08:17;;;;;;;4.40;3.05;;;;;;;;;;5040440;28;20068;-50
2022/03/25 12:10:44;;;;;;;3.75;3.17;;;;;;;;;;5048440;28;20524;-50
2022/03/25 12:13:10;;;;;;;4.60;3.00;;;;;;;;;;5044991;28;20044;-51
2022/03/25 12:15:54;;;;;;;4.30;3.05;;;;;;;;;;5031461;28;20038;-52
2022/03/25 12:18:39;;;;;;;3.45;2.47;;;;;;;;;;5028820;28;20520;-48
2022/03/25 12:21:10;;;;;;;3.60;2.90;;;;;;;;;;5044428;28;20555;-48
2022/03/25 12:23:38;;;;;;;4.85;3.42;;;;;;;;;;5048588;28;20151;-51
2022/03/25 12:26:05;;;;;;;5.45;3.78;;;;;;;;;;5048303;28;20028;-49
2022/03/25 12:28:31;;;;;;;5.57;3.72;;;;;;;;;;5048177;28;20028;-48
2022/03/25 12:31:02;;;;;;;5.38;3.70;;;;;;;;;;5041924;28;20040;-47
2022/03/25 12:33:30;;;;;;;5.28;4.00;;;;;;;;;;5028386;28;20029;-48
2022/03/25 12:35:58;;;;;;;4.22;3.50;;;;;;;;;;5028223;28;20510;-48
2022/03/25 12:38:25;;;;;;;5.28;4.15;;;;;;;;;;5028485;28;20018;-48
2022/03/25 12:40:53;;;;;;;6.50;3.78;;;;;;;;;;5027516;28;20171;-49
2022/03/25 12:43:19;;;;;;;7.60;5.65;;;;;;;;;;5046475;28;20413;-49
2022/03/25 12:45:48;;;;;;;6.40;4.75;;;;;;;;;;5047756;28;20519;-49
2022/03/25 12:48:25;;;;;;;6.13;4.50;;;;;;;;;;5048741;28;20028;-49
2022/03/25 12:50:55;;;;;;;6.68;4.82;;;;;;;;;;5035463;28;20052;-48
2022/03/25 12:53:29;;;;;;;6.00;4.25;;;;;;;;;;5028051;28;20031;-48
2022/03/25 12:55:56;;;;;;;5.57;4.22;;;;;;;;;;5028957;28;20033;-48
2022/03/25 12:58:23;;;;;;;5.78;4.30;;;;;;;;;;5027962;28;20028;-48
2022/03/25 13:00:53;;;;;;;5.13;4.07;;;;;;;;;;5028272;28;20025;-51
2022/03/25 13:03:21;;;;;;;6.53;4.10;;;;;;;;;;5027504;28;20053;-52
2022/03/25 13:05:47;;;;;;;5.15;4.05;;;;;;;;;;5026500;28;20131;-49
2022/03/25 13:08:14;;;;;;;5.22;3.95;;;;;;;;;;5027978;28;20025;-49
2022/03/25 13:10:41;;;;;;;6.07;3.80;;;;;;;;;;5027312;28;20049;-48
2022/03/25 13:13:08;;;;;;;6.30;4.45;;;;;;;;;;5028948;28;20029;-49
2022/03/25 13:15:41;;;;;;;7.28;4.72;;;;;;;;;;5027587;28;20022;-50
2022/03/25 13:18:09;;;;;;;5.40;3.97;;;;;;;;;;5026204;28;20108;-49
2022/03/25 13:20:36;;;;;;;5.60;4.00;;;;;;;;;;5027787;28;20104;-48
2022/03/25 13:23:07;;;;;;;4.90;3.80;;;;;;;;;;5027685;28;20079;-49
2022/03/25 13:25:40;;;;;;;5.22;3.90;;;;;;;;;;5027305;28;20038;-50
2022/03/25 13:28:11;;;;;;;4.72;3.63;;;;;;;;;;5027930;28;20025;-48
2022/03/25 13:30:38;;;;;;;5.13;3.90;;;;;;;;;;5027222;28;20585;-51
2022/03/25 13:33:15;;;;;;;5.82;4.35;;;;;;;;;;5041595;28;20036;-49
2022/03/25 13:35:49;;;;;;;5.05;3.85;;;;;;;;;;5046535;28;20119;-49
2022/03/25 13:38:27;;;;;;;6.57;4.32;;;;;;;;;;5047474;28;20519;-49
2022/03/25 13:40:58;;;;;;;5.90;3.90;;;;;;;;;;5045692;28;20384;-49
2022/03/25 13:43:32;;;;;;;5.20;3.88;;;;;;;;;;5029229;28;20040;-48
2022/03/25 13:46:07;;;;;;;4.40;3.58;;;;;;;;;;5027870;28;20033;-52
2022/03/25 13:48:37;;;;;;;3.90;3.50;;;;;;;;;;5027529;28;20033;-51
2022/03/25 13:51:03;;;;;;;4.70;3.95;;;;;;;;;;5027253;28;20056;-54
2022/03/25 13:53:31;;;;;;;4.40;3.35;;;;;;;;;;5041791;28;20056;-47
2022/03/25 13:55:57;;;;;;;4.72;3.88;;;;;;;;;;5036810;28;20033;-48
2022/03/25 13:58:23;;;;;;;5.03;3.95;;;;;;;;;;5041435;28;20476;-49
2022/03/25 14:00:51;;;;;;;6.70;5.22;;;;;;;;;;5025579;28;20025;-48
2022/03/25 14:03:18;;;;;;;7.15;5.40;;;;;;;;;;5025853;28;20064;-48
2022/03/25 14:05:44;;;;;;;5.90;4.40;;;;;;;;;;5026459;28;20021;-50
2022/03/25 14:08:12;;;;;;;5.53;4.05;;;;;;;;;;5029503;28;20029;-48
2022/03/25 14:10:54;;;;;;;7.70;6.05;;;;;;;;;;5039785;28;20086;-50
2022/03/25 14:13:20;;;;;;;7.30;5.28;;;;;;;;;;5040649;28;20029;-53
2022/03/25 14:15:46;;;;;;;6.47;4.97;;;;;;;;;;5045387;28;20032;-48
2022/03/25 14:18:20;;;;;;;8.00;5.65;;;;;;;;;;5032362;28;20114;-49
2022/03/25 14:20:47;;;;;;;8.23;5.40;;;;;;;;;;5033116;28;20032;-51
2022/03/25 14:23:19;;;;;;;7.57;5.75;;;;;;;;;;5033661;28;20034;-48
2022/03/25 14:25:45;;;;;;;8.00;5.57;;;;;;;;;;5036282;28;20029;-50
2022/03/25 14:28:14;;;;;;;7.70;6.00;;;;;;;;;;5033419;28;20033;-48
2022/03/25 14:30:41;;;;;;;7.60;5.40;;;;;;;;;;5037426;28;20066;-50
2022/03/25 14:33:07;;;;;;;7.93;5.85;;;;;;;;;;5035789;28;20477;-48
2022/03/25 14:35:33;;;;;;;8.10;6.05;;;;;;;;;;5065472;28;20029;-50
2022/03/25 14:38:00;;;;;;;8.10;5.18;;;;;;;;;;5045572;28;20033;-48
2022/03/25 14:40:26;;;;;;;7.10;5.22;;;;;;;;;;5032897;28;20098;-48
2022/03/25 14:42:52;;;;;;;10.80;7.03;;;;;;;;;;5033265;28;20041;-48
2022/03/25 14:45:19;;;;;;;7.53;5.97;;;;;;;;;;5032824;28;20036;-53
2022/03/25 14:47:45;;;;;;;7.85;5.68;;;;;;;;;;5032016;28;20029;-51
2022/03/25 14:50:12;;;;;;;6.88;5.30;;;;;;;;;;5042705;28;20021;-48
2022/03/25 14:52:39;;;;;;;6.78;5.32;;;;;;;;;;5052042;28;20422;-51